sensor_id;sensor_type;location;lat;lon;timestamp;P1;durP1;ratioP1;P2;durP2;ratioP2
9914;SDS011;4996;48.746;9.174;2022-11-20T00:00:34;12.73;;;6.77;;
9914;SDS011;4996;48.746;9.174;2022-11-20T00:03:00;20.97;;;10.70;;
9914;SDS011;4996;48.746;9.174;2022-11-20T00:05:25;16.10;;;8.67;;
9914;SDS011;4996;48.746;9.174;2022-11-20T00:07:51;7.90;;;4.67;;
9914;SDS011;4996;48.746;9.174;2022-11-20T00:10:16;7.47;;;3.87;;
9914;SDS011;4996;48.746;9.174;2022-11-20T00:12:42;5.33;;;3.80;;
9914;SDS011;4996;48.746;9.174;2022-11-20T00:15:07;4.90;;;4.13;;
9914;SDS011;4996;48.746;9.174;2022-11-20T00:17:33;5.40;;;3.30;;
9914;SDS011;4996;48.746;9.174;2022-11-20T00:19:59;5.43;;;4.10;;
9914;SDS011;4996;48.746;9.174;2022-11-20T00:22:24;4.60;;;3.30;;
9914;SDS011;4996;48.746;9.174;2022-11-20T00:24:50;4.50;;;3.47;;
9914;SDS011;4996;48.746;9.174;2022-11-20T00:27:15;3.27;;;2.93;;
9914;SDS011;4996;48.746;9.174;2022-11-20T00:29:41;4.40;;;3.07;;
9914;SDS011;4996;48.746;9.174;2022-11-20T00:32:06;5.33;;;3.23;;
9914;SDS011;4996;48.746;9.174;2022-11-20T00:34:32;5.73;;;3.47;;
9914;SDS011;4996;48.746;9.174;2022-11-20T00:36:57;4.13;;;3.00;;
9914;SDS011;4996;48.746;9.174;2022-11-20T00:39:23;6.10;;;3.37;;
9914;SDS011;4996;48.746;9.174;2022-11-20T00:41:48;5.70;;;3.67;;
9914;SDS011;4996;48.746;9.174;2022-11-20T00:44:15;4.07;;;2.70;;
9914;SDS011;4996;48.746;9.174;2022-11-20T00:46:40;4.10;;;3.10;;
9914;SDS011;4996;48.746;9.174;2022-11-20T00:49:06;10.87;;;3.20;;
9914;SDS011;4996;48.746;9.174;2022-11-20T00:51:31;5.57;;;3.30;;
9914;SDS011;4996;48.746;9.174;2022-11-20T00:53:57;4.23;;;3.20;;
9914;SDS011;4996;48.746;9.174;2022-11-20T00:56:24;9.50;;;3.40;;
9914;SDS011;4996;48.746;9.174;2022-11-20T00:58:50;5.20;;;3.23;;
9914;SDS011;4996;48.746;9.174;2022-11-20T01:03:44;4.23;;;2.70;;
9914;SDS011;4996;48.746;9.174;2022-11-20T01:06:15;3.97;;;2.60;;
9914;SDS011;4996;48.746;9.174;2022-11-20T01:08:41;4.07;;;2.87;;
9914;SDS011;4996;48.746;9.174;2022-11-20T01:11:08;3.50;;;2.60;;
9914;SDS011;4996;48.746;9.174;2022-11-20T01:13:35;3.50;;;2.67;;
9914;SDS011;4996;48.746;9.174;2022-11-20T01:16:04;3.77;;;2.83;;
9914;SDS011;4996;48.746;9.174;2022-11-20T01:18:38;2.87;;;2.43;;
9914;SDS011;4996;48.746;9.174;2022-11-20T01:21:07;2.90;;;2.20;;
9914;SDS011;4996;48.746;9.174;2022-11-20T01:23:36;3.53;;;3.00;;
9914;SDS011;4996;48.746;9.174;2022-11-20T01:26:04;2.90;;;2.13;;
9914;SDS011;4996;48.746;9.174;2022-11-20T01:28:35;4.70;;;3.00;;
9914;SDS011;4996;48.746;9.174;2022-11-20T01:31:01;3.17;;;2.63;;
9914;SDS011;4996;48.746;9.174;2022-11-20T01:33:34;5.43;;;2.40;;
9914;SDS011;4996;48.746;9.174;2022-11-20T01:36:04;3.87;;;2.33;;
9914;SDS011;4996;48.746;9.174;2022-11-20T01:38:30;5.17;;;3.20;;
9914;SDS011;4996;48.746;9.174;2022-11-20T01:40:56;3.83;;;2.70;;
9914;SDS011;4996;48.746;9.174;2022-11-20T01:43:21;3.50;;;2.23;;
9914;SDS011;4996;48.746;9.174;2022-11-20T01:48:38;4.53;;;3.57;;
9914;SDS011;4996;48.746;9.174;2022-11-20T01:51:20;6.30;;;2.77;;
9914;SDS011;4996;48.746;9.174;2022-11-20T01:53:51;3.33;;;2.73;;
9914;SDS011;4996;48.746;9.174;2022-11-20T01:56:19;4.20;;;3.20;;
9914;SDS011;4996;48.746;9.174;2022-11-20T01:58:48;4.47;;;3.10;;
9914;SDS011;4996;48.746;9.174;2022-11-20T02:01:18;4.37;;;2.70;;
9914;SDS011;4996;48.746;9.174;2022-11-20T02:03:45;5.97;;;3.07;;
9914;SDS011;4996;48.746;9.174;2022-11-20T02:06:19;3.47;;;2.70;;
9914;SDS011;4996;48.746;9.174;2022-11-20T02:08:52;2.60;;;2.07;;
9914;SDS011;4996;48.746;9.174;2022-11-20T02:11:19;3.13;;;2.57;;
9914;SDS011;4996;48.746;9.174;2022-11-20T02:13:44;2.77;;;2.20;;
9914;SDS011;4996;48.746;9.174;2022-11-20T02:16:24;2.80;;;2.17;;
9914;SDS011;4996;48.746;9.174;2022-11-20T02:18:53;10.07;;;2.47;;
9914;SDS011;4996;48.746;9.174;2022-11-20T02:26:40;3.13;;;2.83;;
9914;SDS011;4996;48.746;9.174;2022-11-20T02:29:09;3.22;;;2.08;;
9914;SDS011;4996;48.746;9.174;2022-11-20T02:31:36;4.20;;;2.73;;
9914;SDS011;4996;48.746;9.174;2022-11-20T02:34:06;3.90;;;2.60;;
9914;SDS011;4996;48.746;9.174;2022-11-20T02:36:33;4.00;;;2.73;;
9914;SDS011;4996;48.746;9.174;2022-11-20T02:39:00;3.03;;;2.73;;
9914;SDS011;4996;48.746;9.174;2022-11-20T02:41:33;3.27;;;2.90;;
9914;SDS011;4996;48.746;9.174;2022-11-20T02:44:01;3.20;;;2.37;;
9914;SDS011;4996;48.746;9.174;2022-11-20T02:46:27;5.10;;;2.97;;
9914;SDS011;4996;48.746;9.174;2022-11-20T02:48:53;4.07;;;2.93;;
9914;SDS011;4996;48.746;9.174;2022-11-20T02:51:18;6.07;;;3.13;;
9914;SDS011;4996;48.746;9.174;2022-11-20T02:53:44;5.97;;;3.10;;
9914;SDS011;4996;48.746;9.174;2022-11-20T02:56:10;5.40;;;3.50;;
9914;SDS011;4996;48.746;9.174;2022-11-20T02:58:35;5.43;;;3.40;;
9914;SDS011;4996;48.746;9.174;2022-11-20T03:01:01;5.70;;;3.23;;
9914;SDS011;4996;48.746;9.174;2022-11-20T03:03:26;4.10;;;3.27;;
9914;SDS011;4996;48.746;9.174;2022-11-20T03:05:52;5.10;;;2.63;;
9914;SDS011;4996;48.746;9.174;2022-11-20T03:08:17;3.90;;;2.93;;
9914;SDS011;4996;48.746;9.174;2022-11-20T03:10:43;3.73;;;2.40;;
9914;SDS011;4996;48.746;9.174;2022-11-20T03:13:08;5.77;;;3.83;;
9914;SDS011;4996;48.746;9.174;2022-11-20T03:15:35;3.43;;;2.77;;
9914;SDS011;4996;48.746;9.174;2022-11-20T03:18:02;3.93;;;2.30;;
9914;SDS011;4996;48.746;9.174;2022-11-20T03:20:27;3.33;;;2.70;;
9914;SDS011;4996;48.746;9.174;2022-11-20T03:22:53;4.33;;;2.97;;
9914;SDS011;4996;48.746;9.174;2022-11-20T03:25:19;3.47;;;2.80;;
9914;SDS011;4996;48.746;9.174;2022-11-20T03:27:45;3.93;;;3.53;;
9914;SDS011;4996;48.746;9.174;2022-11-20T03:30:11;5.90;;;3.20;;
9914;SDS011;4996;48.746;9.174;2022-11-20T03:32:37;4.10;;;2.90;;
9914;SDS011;4996;48.746;9.174;2022-11-20T03:35:03;4.23;;;3.13;;
9914;SDS011;4996;48.746;9.174;2022-11-20T03:37:28;7.97;;;3.40;;
9914;SDS011;4996;48.746;9.174;2022-11-20T03:39:54;4.50;;;3.03;;
9914;SDS011;4996;48.746;9.174;2022-11-20T03:42:19;6.20;;;3.60;;
9914;SDS011;4996;48.746;9.174;2022-11-20T03:45:04;4.43;;;3.50;;
9914;SDS011;4996;48.746;9.174;2022-11-20T03:47:30;3.60;;;3.00;;
9914;SDS011;4996;48.746;9.174;2022-11-20T03:49:55;6.63;;;3.40;;
9914;SDS011;4996;48.746;9.174;2022-11-20T03:52:21;4.90;;;3.20;;
9914;SDS011;4996;48.746;9.174;2022-11-20T03:54:46;6.37;;;4.03;;
9914;SDS011;4996;48.746;9.174;2022-11-20T03:57:11;5.27;;;3.97;;
9914;SDS011;4996;48.746;9.174;2022-11-20T03:59:37;3.77;;;2.70;;
9914;SDS011;4996;48.746;9.174;2022-11-20T04:02:02;2.90;;;2.60;;
9914;SDS011;4996;48.746;9.174;2022-11-20T04:04:28;4.27;;;3.37;;
9914;SDS011;4996;48.746;9.174;2022-11-20T04:06:54;5.43;;;4.03;;
9914;SDS011;4996;48.746;9.174;2022-11-20T04:09:19;4.73;;;3.53;;
9914;SDS011;4996;48.746;9.174;2022-11-20T04:11:45;6.73;;;3.50;;
9914;SDS011;4996;48.746;9.174;2022-11-20T04:14:14;5.83;;;3.40;;
9914;SDS011;4996;48.746;9.174;2022-11-20T04:16:41;4.05;;;3.50;;
9914;SDS011;4996;48.746;9.174;2022-11-20T04:19:09;5.80;;;3.67;;
9914;SDS011;4996;48.746;9.174;2022-11-20T04:21:36;4.07;;;3.40;;
9914;SDS011;4996;48.746;9.174;2022-11-20T04:24:02;5.40;;;3.47;;
9914;SDS011;4996;48.746;9.174;2022-11-20T04:26:28;4.50;;;3.33;;
9914;SDS011;4996;48.746;9.174;2022-11-20T04:28:55;6.30;;;4.00;;
9914;SDS011;4996;48.746;9.174;2022-11-20T04:31:22;5.47;;;4.10;;
9914;SDS011;4996;48.746;9.174;2022-11-20T04:33:49;5.43;;;4.70;;
9914;SDS011;4996;48.746;9.174;2022-11-20T04:36:17;4.47;;;3.50;;
9914;SDS011;4996;48.746;9.174;2022-11-20T04:38:44;4.80;;;3.90;;
9914;SDS011;4996;48.746;9.174;2022-11-20T04:41:14;3.83;;;3.43;;
9914;SDS011;4996;48.746;9.174;2022-11-20T04:43:45;4.70;;;3.40;;
9914;SDS011;4996;48.746;9.174;2022-11-20T04:46:12;5.13;;;3.38;;
9914;SDS011;4996;48.746;9.174;2022-11-20T04:48:37;4.33;;;3.73;;
9914;SDS011;4996;48.746;9.174;2022-11-20T04:51:03;10.27;;;4.10;;
9914;SDS011;4996;48.746;9.174;2022-11-20T04:53:29;3.88;;;2.92;;
9914;SDS011;4996;48.746;9.174;2022-11-20T04:56:01;5.90;;;3.70;;
9914;SDS011;4996;48.746;9.174;2022-11-20T04:58:28;7.40;;;4.50;;
9914;SDS011;4996;48.746;9.174;2022-11-20T05:01:00;4.87;;;3.80;;
9914;SDS011;4996;48.746;9.174;2022-11-20T05:03:34;4.85;;;3.80;;
9914;SDS011;4996;48.746;9.174;2022-11-20T05:06:00;6.80;;;3.73;;
9914;SDS011;4996;48.746;9.174;2022-11-20T05:08:27;4.50;;;4.07;;
9914;SDS011;4996;48.746;9.174;2022-11-20T05:10:53;4.30;;;3.47;;
9914;SDS011;4996;48.746;9.174;2022-11-20T05:13:18;5.63;;;3.73;;
9914;SDS011;4996;48.746;9.174;2022-11-20T05:15:44;9.87;;;4.23;;
9914;SDS011;4996;48.746;9.174;2022-11-20T05:18:09;4.73;;;3.40;;
9914;SDS011;4996;48.746;9.174;2022-11-20T05:20:35;5.30;;;3.67;;
9914;SDS011;4996;48.746;9.174;2022-11-20T05:23:01;4.43;;;3.47;;
9914;SDS011;4996;48.746;9.174;2022-11-20T05:25:27;7.20;;;3.50;;
9914;SDS011;4996;48.746;9.174;2022-11-20T05:27:52;3.87;;;3.47;;
9914;SDS011;4996;48.746;9.174;2022-11-20T05:30:18;3.00;;;2.70;;
9914;SDS011;4996;48.746;9.174;2022-11-20T05:32:44;4.37;;;3.90;;
9914;SDS011;4996;48.746;9.174;2022-11-20T05:35:09;6.30;;;3.10;;
9914;SDS011;4996;48.746;9.174;2022-11-20T05:37:35;5.60;;;3.80;;
9914;SDS011;4996;48.746;9.174;2022-11-20T05:40:00;8.53;;;4.03;;
9914;SDS011;4996;48.746;9.174;2022-11-20T05:42:26;4.30;;;3.40;;
9914;SDS011;4996;48.746;9.174;2022-11-20T05:44:58;6.10;;;3.27;;
9914;SDS011;4996;48.746;9.174;2022-11-20T05:47:24;7.33;;;3.43;;
9914;SDS011;4996;48.746;9.174;2022-11-20T05:49:50;4.03;;;2.88;;
9914;SDS011;4996;48.746;9.174;2022-11-20T05:52:15;5.73;;;3.03;;
9914;SDS011;4996;48.746;9.174;2022-11-20T05:54:41;4.43;;;3.27;;
9914;SDS011;4996;48.746;9.174;2022-11-20T05:57:06;5.00;;;2.50;;
9914;SDS011;4996;48.746;9.174;2022-11-20T05:59:32;6.00;;;3.60;;
9914;SDS011;4996;48.746;9.174;2022-11-20T06:01:57;5.23;;;3.20;;
9914;SDS011;4996;48.746;9.174;2022-11-20T06:04:23;5.07;;;3.10;;
9914;SDS011;4996;48.746;9.174;2022-11-20T06:06:49;3.00;;;2.70;;
9914;SDS011;4996;48.746;9.174;2022-11-20T06:09:14;3.20;;;2.80;;
9914;SDS011;4996;48.746;9.174;2022-11-20T06:11:40;3.40;;;2.77;;
9914;SDS011;4996;48.746;9.174;2022-11-20T06:14:05;5.07;;;3.40;;
9914;SDS011;4996;48.746;9.174;2022-11-20T06:16:31;7.27;;;3.40;;
9914;SDS011;4996;48.746;9.174;2022-11-20T06:18:56;7.30;;;2.60;;
9914;SDS011;4996;48.746;9.174;2022-11-20T06:21:22;3.70;;;3.27;;
9914;SDS011;4996;48.746;9.174;2022-11-20T06:23:49;3.40;;;2.60;;
9914;SDS011;4996;48.746;9.174;2022-11-20T06:26:16;4.13;;;2.83;;
9914;SDS011;4996;48.746;9.174;2022-11-20T06:28:46;5.60;;;3.23;;
9914;SDS011;4996;48.746;9.174;2022-11-20T06:31:13;4.80;;;3.17;;
9914;SDS011;4996;48.746;9.174;2022-11-20T06:33:40;9.00;;;2.85;;
9914;SDS011;4996;48.746;9.174;2022-11-20T06:36:06;5.63;;;2.97;;
9914;SDS011;4996;48.746;9.174;2022-11-20T06:38:32;3.87;;;2.60;;
9914;SDS011;4996;48.746;9.174;2022-11-20T06:40:57;6.57;;;2.67;;
9914;SDS011;4996;48.746;9.174;2022-11-20T06:43:23;4.60;;;2.73;;
9914;SDS011;4996;48.746;9.174;2022-11-20T06:45:53;3.78;;;2.30;;
9914;SDS011;4996;48.746;9.174;2022-11-20T06:48:19;4.30;;;3.20;;
9914;SDS011;4996;48.746;9.174;2022-11-20T06:50:45;4.60;;;2.67;;
9914;SDS011;4996;48.746;9.174;2022-11-20T06:53:11;3.60;;;2.87;;
9914;SDS011;4996;48.746;9.174;2022-11-20T06:55:36;9.50;;;2.57;;
9914;SDS011;4996;48.746;9.174;2022-11-20T06:58:02;4.07;;;2.90;;
9914;SDS011;4996;48.746;9.174;2022-11-20T07:00:27;6.60;;;2.90;;
9914;SDS011;4996;48.746;9.174;2022-11-20T07:02:54;4.63;;;3.15;;
9914;SDS011;4996;48.746;9.174;2022-11-20T07:05:20;5.30;;;3.27;;
9914;SDS011;4996;48.746;9.174;2022-11-20T07:07:45;4.50;;;3.30;;
9914;SDS011;4996;48.746;9.174;2022-11-20T07:10:11;4.77;;;3.07;;
9914;SDS011;4996;48.746;9.174;2022-11-20T07:12:36;8.40;;;3.03;;
9914;SDS011;4996;48.746;9.174;2022-11-20T07:15:02;3.23;;;2.93;;
9914;SDS011;4996;48.746;9.174;2022-11-20T07:17:28;4.40;;;3.13;;
9914;SDS011;4996;48.746;9.174;2022-11-20T07:19:53;6.60;;;2.57;;
9914;SDS011;4996;48.746;9.174;2022-11-20T07:22:19;4.70;;;2.93;;
9914;SDS011;4996;48.746;9.174;2022-11-20T07:24:46;3.90;;;2.80;;
9914;SDS011;4996;48.746;9.174;2022-11-20T07:27:12;3.47;;;2.93;;
9914;SDS011;4996;48.746;9.174;2022-11-20T07:29:37;2.93;;;2.37;;
9914;SDS011;4996;48.746;9.174;2022-11-20T07:32:03;3.37;;;2.73;;
9914;SDS011;4996;48.746;9.174;2022-11-20T07:34:29;5.50;;;2.70;;
9914;SDS011;4996;48.746;9.174;2022-11-20T07:36:54;4.83;;;2.67;;
9914;SDS011;4996;48.746;9.174;2022-11-20T07:39:20;3.63;;;2.37;;
9914;SDS011;4996;48.746;9.174;2022-11-20T07:41:45;3.07;;;2.43;;
9914;SDS011;4996;48.746;9.174;2022-11-20T07:44:11;4.60;;;2.90;;
9914;SDS011;4996;48.746;9.174;2022-11-20T07:46:36;5.40;;;3.10;;
9914;SDS011;4996;48.746;9.174;2022-11-20T07:49:02;3.60;;;2.40;;
9914;SDS011;4996;48.746;9.174;2022-11-20T07:51:27;4.40;;;2.87;;
9914;SDS011;4996;48.746;9.174;2022-11-20T07:53:54;3.10;;;2.50;;
9914;SDS011;4996;48.746;9.174;2022-11-20T07:56:19;3.30;;;2.30;;
9914;SDS011;4996;48.746;9.174;2022-11-20T07:58:45;3.07;;;2.20;;
9914;SDS011;4996;48.746;9.174;2022-11-20T08:01:10;3.27;;;2.40;;
9914;SDS011;4996;48.746;9.174;2022-11-20T08:03:36;2.50;;;2.20;;
9914;SDS011;4996;48.746;9.174;2022-11-20T08:06:04;3.70;;;2.47;;
9914;SDS011;4996;48.746;9.174;2022-11-20T08:08:30;1.90;;;1.70;;
9914;SDS011;4996;48.746;9.174;2022-11-20T08:10:56;5.60;;;2.33;;
9914;SDS011;4996;48.746;9.174;2022-11-20T08:13:41;2.40;;;1.90;;
9914;SDS011;4996;48.746;9.174;2022-11-20T08:16:25;2.00;;;1.87;;
9914;SDS011;4996;48.746;9.174;2022-11-20T08:18:50;3.17;;;2.37;;
9914;SDS011;4996;48.746;9.174;2022-11-20T08:21:16;3.00;;;2.63;;
9914;SDS011;4996;48.746;9.174;2022-11-20T08:23:41;3.27;;;2.10;;
9914;SDS011;4996;48.746;9.174;2022-11-20T08:26:07;2.80;;;2.30;;
9914;SDS011;4996;48.746;9.174;2022-11-20T08:28:32;2.90;;;2.37;;
9914;SDS011;4996;48.746;9.174;2022-11-20T08:31:01;3.60;;;2.33;;
9914;SDS011;4996;48.746;9.174;2022-11-20T08:33:27;2.10;;;1.63;;
9914;SDS011;4996;48.746;9.174;2022-11-20T08:35:53;2.30;;;1.73;;
9914;SDS011;4996;48.746;9.174;2022-11-20T08:38:26;4.20;;;1.40;;
9914;SDS011;4996;48.746;9.174;2022-11-20T08:40:55;4.10;;;1.60;;
9914;SDS011;4996;48.746;9.174;2022-11-20T08:43:40;2.43;;;1.70;;
9914;SDS011;4996;48.746;9.174;2022-11-20T08:46:06;2.03;;;1.63;;
9914;SDS011;4996;48.746;9.174;2022-11-20T08:48:31;5.07;;;2.00;;
9914;SDS011;4996;48.746;9.174;2022-11-20T08:50:57;3.57;;;2.20;;
9914;SDS011;4996;48.746;9.174;2022-11-20T08:53:24;2.60;;;1.57;;
9914;SDS011;4996;48.746;9.174;2022-11-20T08:55:49;2.10;;;1.80;;
9914;SDS011;4996;48.746;9.174;2022-11-20T08:58:15;2.17;;;1.80;;
9914;SDS011;4996;48.746;9.174;2022-11-20T09:00:41;1.50;;;1.20;;
9914;SDS011;4996;48.746;9.174;2022-11-20T09:03:06;3.07;;;1.33;;
9914;SDS011;4996;48.746;9.174;2022-11-20T09:05:32;1.70;;;1.43;;
9914;SDS011;4996;48.746;9.174;2022-11-20T09:07:57;1.87;;;1.53;;
9914;SDS011;4996;48.746;9.174;2022-11-20T09:10:23;4.27;;;1.70;;
9914;SDS011;4996;48.746;9.174;2022-11-20T09:12:49;1.50;;;1.30;;
9914;SDS011;4996;48.746;9.174;2022-11-20T09:15:16;1.10;;;1.00;;
9914;SDS011;4996;48.746;9.174;2022-11-20T09:17:42;1.13;;;1.00;;
9914;SDS011;4996;48.746;9.174;2022-11-20T09:20:14;1.43;;;1.30;;
9914;SDS011;4996;48.746;9.174;2022-11-20T09:22:41;1.57;;;1.00;;
9914;SDS011;4996;48.746;9.174;2022-11-20T09:25:06;1.70;;;1.00;;
9914;SDS011;4996;48.746;9.174;2022-11-20T09:27:32;1.73;;;1.07;;
9914;SDS011;4996;48.746;9.174;2022-11-20T09:29:58;1.27;;;1.17;;
9914;SDS011;4996;48.746;9.174;2022-11-20T09:32:23;1.20;;;0.97;;
9914;SDS011;4996;48.746;9.174;2022-11-20T09:34:49;1.60;;;1.40;;
9914;SDS011;4996;48.746;9.174;2022-11-20T09:37:14;1.20;;;1.10;;
9914;SDS011;4996;48.746;9.174;2022-11-20T09:39:40;1.47;;;1.17;;
9914;SDS011;4996;48.746;9.174;2022-11-20T09:47:24;1.77;;;0.80;;
9914;SDS011;4996;48.746;9.174;2022-11-20T09:50:02;1.67;;;1.17;;
9914;SDS011;4996;48.746;9.174;2022-11-20T09:52:53;1.17;;;1.07;;
9914;SDS011;4996;48.746;9.174;2022-11-20T09:55:26;1.50;;;0.90;;
9914;SDS011;4996;48.746;9.174;2022-11-20T09:57:54;1.00;;;0.90;;
9914;SDS011;4996;48.746;9.174;2022-11-20T10:00:22;1.00;;;0.73;;
9914;SDS011;4996;48.746;9.174;2022-11-20T10:05:52;1.43;;;1.03;;
9914;SDS011;4996;48.746;9.174;2022-11-20T10:10:53;1.40;;;0.97;;
9914;SDS011;4996;48.746;9.174;2022-11-20T10:16:15;1.43;;;1.30;;
9914;SDS011;4996;48.746;9.174;2022-11-20T10:21:58;1.43;;;1.03;;
9914;SDS011;4996;48.746;9.174;2022-11-20T10:30:11;2.87;;;1.27;;
9914;SDS011;4996;48.746;9.174;2022-11-20T10:32:39;1.10;;;1.00;;
9914;SDS011;4996;48.746;9.174;2022-11-20T10:37:43;1.50;;;0.97;;
9914;SDS011;4996;48.746;9.174;2022-11-20T10:43:19;1.27;;;0.90;;
9914;SDS011;4996;48.746;9.174;2022-11-20T10:45:53;3.10;;;2.90;;
9914;SDS011;4996;48.746;9.174;2022-11-20T10:48:24;1.40;;;1.00;;
9914;SDS011;4996;48.746;9.174;2022-11-20T10:51:37;1.10;;;1.00;;
9914;SDS011;4996;48.746;9.174;2022-11-20T11:01:57;1.63;;;1.27;;
9914;SDS011;4996;48.746;9.174;2022-11-20T11:07:10;2.00;;;1.40;;
9914;SDS011;4996;48.746;9.174;2022-11-20T11:09:43;2.07;;;1.50;;
9914;SDS011;4996;48.746;9.174;2022-11-20T11:12:14;3.17;;;1.20;;
9914;SDS011;4996;48.746;9.174;2022-11-20T11:14:48;2.63;;;1.60;;
9914;SDS011;4996;48.746;9.174;2022-11-20T11:17:19;3.93;;;1.30;;
9914;SDS011;4996;48.746;9.174;2022-11-20T11:22:42;1.57;;;1.40;;
9914;SDS011;4996;48.746;9.174;2022-11-20T11:25:12;4.23;;;1.70;;
9914;SDS011;4996;48.746;9.174;2022-11-20T11:27:50;2.37;;;1.40;;
9914;SDS011;4996;48.746;9.174;2022-11-20T11:30:17;2.87;;;1.73;;
9914;SDS011;4996;48.746;9.174;2022-11-20T11:32:44;4.70;;;2.00;;
9914;SDS011;4996;48.746;9.174;2022-11-20T11:35:20;4.23;;;1.30;;
9914;SDS011;4996;48.746;9.174;2022-11-20T11:37:48;2.33;;;1.43;;
9914;SDS011;4996;48.746;9.174;2022-11-20T11:40:14;1.50;;;1.40;;
9914;SDS011;4996;48.746;9.174;2022-11-20T11:42:42;2.83;;;1.63;;
9914;SDS011;4996;48.746;9.174;2022-11-20T11:45:16;1.43;;;1.17;;
9914;SDS011;4996;48.746;9.174;2022-11-20T11:50:21;5.93;;;2.13;;
9914;SDS011;4996;48.746;9.174;2022-11-20T11:58:09;2.57;;;1.50;;
9914;SDS011;4996;48.746;9.174;2022-11-20T12:01:24;4.47;;;2.20;;
9914;SDS011;4996;48.746;9.174;2022-11-20T12:06:39;3.23;;;0.90;;
9914;SDS011;4996;48.746;9.174;2022-11-20T12:09:09;1.17;;;1.07;;
9914;SDS011;4996;48.746;9.174;2022-11-20T12:11:46;2.03;;;1.03;;
9914;SDS011;4996;48.746;9.174;2022-11-20T12:16:52;5.60;;;2.10;;
9914;SDS011;4996;48.746;9.174;2022-11-20T12:19:20;2.73;;;1.47;;
9914;SDS011;4996;48.746;9.174;2022-11-20T12:24:48;1.70;;;1.20;;
9914;SDS011;4996;48.746;9.174;2022-11-20T12:27:47;1.43;;;0.80;;
9914;SDS011;4996;48.746;9.174;2022-11-20T12:30:22;3.57;;;1.47;;
9914;SDS011;4996;48.746;9.174;2022-11-20T12:41:27;0.80;;;0.60;;
9914;SDS011;4996;48.746;9.174;2022-11-20T12:50:14;3.33;;;1.53;;
9914;SDS011;4996;48.746;9.174;2022-11-20T12:53:04;2.53;;;1.07;;
9914;SDS011;4996;48.746;9.174;2022-11-20T12:58:44;2.00;;;1.10;;
9914;SDS011;4996;48.746;9.174;2022-11-20T13:07:12;1.57;;;0.73;;
9914;SDS011;4996;48.746;9.174;2022-11-20T13:09:43;3.30;;;1.13;;
9914;SDS011;4996;48.746;9.174;2022-11-20T13:14:53;1.83;;;0.80;;
9914;SDS011;4996;48.746;9.174;2022-11-20T13:17:43;1.47;;;0.80;;
9914;SDS011;4996;48.746;9.174;2022-11-20T13:20:21;1.53;;;0.87;;
9914;SDS011;4996;48.746;9.174;2022-11-20T13:22:47;0.70;;;0.50;;
9914;SDS011;4996;48.746;9.174;2022-11-20T13:25:25;1.73;;;0.50;;
9914;SDS011;4996;48.746;9.174;2022-11-20T13:27:53;0.67;;;0.57;;
9914;SDS011;4996;48.746;9.174;2022-11-20T13:30:20;3.73;;;0.87;;
9914;SDS011;4996;48.746;9.174;2022-11-20T13:33:36;0.90;;;0.70;;
9914;SDS011;4996;48.746;9.174;2022-11-20T13:38:49;1.60;;;0.77;;
9914;SDS011;4996;48.746;9.174;2022-11-20T13:41:53;0.70;;;0.60;;
9914;SDS011;4996;48.746;9.174;2022-11-20T13:44:27;4.03;;;0.93;;
9914;SDS011;4996;48.746;9.174;2022-11-20T13:47:17;1.83;;;1.10;;
9914;SDS011;4996;48.746;9.174;2022-11-20T13:49:49;1.00;;;0.73;;
9914;SDS011;4996;48.746;9.174;2022-11-20T14:01:05;1.10;;;0.80;;
9914;SDS011;4996;48.746;9.174;2022-11-20T14:03:41;1.67;;;0.90;;
9914;SDS011;4996;48.746;9.174;2022-11-20T14:06:15;1.67;;;1.20;;
9914;SDS011;4996;48.746;9.174;2022-11-20T14:08:46;0.93;;;0.87;;
9914;SDS011;4996;48.746;9.174;2022-11-20T14:11:15;1.47;;;0.90;;
9914;SDS011;4996;48.746;9.174;2022-11-20T14:13:52;5.20;;;1.83;;
9914;SDS011;4996;48.746;9.174;2022-11-20T14:16:24;2.47;;;1.10;;
9914;SDS011;4996;48.746;9.174;2022-11-20T14:18:52;2.43;;;1.43;;
9914;SDS011;4996;48.746;9.174;2022-11-20T14:21:28;3.80;;;1.53;;
9914;SDS011;4996;48.746;9.174;2022-11-20T14:24:07;2.10;;;1.27;;
9914;SDS011;4996;48.746;9.174;2022-11-20T14:26:37;1.20;;;1.10;;
9914;SDS011;4996;48.746;9.174;2022-11-20T14:29:11;1.40;;;1.27;;
9914;SDS011;4996;48.746;9.174;2022-11-20T14:31:44;2.77;;;1.13;;
9914;SDS011;4996;48.746;9.174;2022-11-20T14:34:15;0.83;;;0.70;;
9914;SDS011;4996;48.746;9.174;2022-11-20T14:36:47;2.20;;;1.50;;
9914;SDS011;4996;48.746;9.174;2022-11-20T14:39:22;1.67;;;1.10;;
9914;SDS011;4996;48.746;9.174;2022-11-20T14:41:54;1.40;;;0.80;;
9914;SDS011;4996;48.746;9.174;2022-11-20T14:44:20;2.30;;;1.10;;
9914;SDS011;4996;48.746;9.174;2022-11-20T14:46:52;1.43;;;0.90;;
9914;SDS011;4996;48.746;9.174;2022-11-20T14:49:19;1.83;;;1.27;;
9914;SDS011;4996;48.746;9.174;2022-11-20T14:51:45;3.13;;;1.10;;
9914;SDS011;4996;48.746;9.174;2022-11-20T14:54:12;1.67;;;1.27;;
9914;SDS011;4996;48.746;9.174;2022-11-20T14:56:40;6.30;;;1.20;;
9914;SDS011;4996;48.746;9.174;2022-11-20T14:59:06;1.70;;;1.33;;
9914;SDS011;4996;48.746;9.174;2022-11-20T15:01:33;7.00;;;1.40;;
9914;SDS011;4996;48.746;9.174;2022-11-20T15:04:20;2.33;;;1.80;;
9914;SDS011;4996;48.746;9.174;2022-11-20T15:06:55;2.50;;;1.20;;
9914;SDS011;4996;48.746;9.174;2022-11-20T15:09:21;2.00;;;1.30;;
9914;SDS011;4996;48.746;9.174;2022-11-20T15:12:05;3.93;;;1.70;;
9914;SDS011;4996;48.746;9.174;2022-11-20T15:14:31;6.73;;;3.13;;
9914;SDS011;4996;48.746;9.174;2022-11-20T15:16:59;9.73;;;2.57;;
9914;SDS011;4996;48.746;9.174;2022-11-20T15:19:25;5.90;;;2.83;;
9914;SDS011;4996;48.746;9.174;2022-11-20T15:21:52;8.20;;;4.00;;
9914;SDS011;4996;48.746;9.174;2022-11-20T15:24:18;5.13;;;1.90;;
9914;SDS011;4996;48.746;9.174;2022-11-20T15:26:44;4.60;;;2.10;;
9914;SDS011;4996;48.746;9.174;2022-11-20T15:29:14;4.20;;;1.67;;
9914;SDS011;4996;48.746;9.174;2022-11-20T15:31:43;3.07;;;1.67;;
9914;SDS011;4996;48.746;9.174;2022-11-20T15:34:13;1.43;;;1.10;;
9914;SDS011;4996;48.746;9.174;2022-11-20T15:36:40;4.20;;;2.43;;
9914;SDS011;4996;48.746;9.174;2022-11-20T15:39:06;7.87;;;2.30;;
9914;SDS011;4996;48.746;9.174;2022-11-20T15:41:32;5.40;;;2.73;;
9914;SDS011;4996;48.746;9.174;2022-11-20T15:44:01;4.30;;;2.40;;
9914;SDS011;4996;48.746;9.174;2022-11-20T15:46:28;2.57;;;1.50;;
9914;SDS011;4996;48.746;9.174;2022-11-20T15:48:58;6.70;;;2.73;;
9914;SDS011;4996;48.746;9.174;2022-11-20T15:51:26;3.37;;;2.53;;
9914;SDS011;4996;48.746;9.174;2022-11-20T15:53:54;12.70;;;1.43;;
9914;SDS011;4996;48.746;9.174;2022-11-20T15:56:21;1.90;;;1.40;;
9914;SDS011;4996;48.746;9.174;2022-11-20T15:58:46;2.03;;;1.77;;
9914;SDS011;4996;48.746;9.174;2022-11-20T16:01:12;1.73;;;1.63;;
9914;SDS011;4996;48.746;9.174;2022-11-20T16:03:40;3.57;;;2.67;;
9914;SDS011;4996;48.746;9.174;2022-11-20T16:06:06;2.57;;;2.00;;
9914;SDS011;4996;48.746;9.174;2022-11-20T16:08:32;3.00;;;1.90;;
9914;SDS011;4996;48.746;9.174;2022-11-20T16:10:58;3.00;;;2.17;;
9914;SDS011;4996;48.746;9.174;2022-11-20T16:13:24;3.80;;;2.30;;
9914;SDS011;4996;48.746;9.174;2022-11-20T16:16:11;4.60;;;2.80;;
9914;SDS011;4996;48.746;9.174;2022-11-20T16:18:45;5.73;;;3.20;;
9914;SDS011;4996;48.746;9.174;2022-11-20T16:21:11;10.23;;;3.90;;
9914;SDS011;4996;48.746;9.174;2022-11-20T16:23:39;6.50;;;3.50;;
9914;SDS011;4996;48.746;9.174;2022-11-20T16:26:09;5.80;;;3.30;;
9914;SDS011;4996;48.746;9.174;2022-11-20T16:28:38;6.17;;;3.37;;
9914;SDS011;4996;48.746;9.174;2022-11-20T16:31:11;7.13;;;3.90;;
9914;SDS011;4996;48.746;9.174;2022-11-20T16:33:38;5.77;;;3.70;;
9914;SDS011;4996;48.746;9.174;2022-11-20T16:36:11;4.70;;;3.20;;
9914;SDS011;4996;48.746;9.174;2022-11-20T16:38:40;5.77;;;3.50;;
9914;SDS011;4996;48.746;9.174;2022-11-20T16:41:06;8.20;;;3.17;;
9914;SDS011;4996;48.746;9.174;2022-11-20T16:43:42;4.57;;;2.57;;
9914;SDS011;4996;48.746;9.174;2022-11-20T16:46:13;5.23;;;3.03;;
9914;SDS011;4996;48.746;9.174;2022-11-20T16:48:39;7.87;;;3.30;;
9914;SDS011;4996;48.746;9.174;2022-11-20T16:51:07;5.00;;;2.70;;
9914;SDS011;4996;48.746;9.174;2022-11-20T16:53:34;3.27;;;2.87;;
9914;SDS011;4996;48.746;9.174;2022-11-20T16:56:13;3.77;;;3.20;;
9914;SDS011;4996;48.746;9.174;2022-11-20T16:58:41;4.07;;;2.93;;
9914;SDS011;4996;48.746;9.174;2022-11-20T17:01:07;5.10;;;2.50;;
9914;SDS011;4996;48.746;9.174;2022-11-20T17:03:41;6.07;;;3.10;;
9914;SDS011;4996;48.746;9.174;2022-11-20T17:06:12;5.20;;;2.53;;
9914;SDS011;4996;48.746;9.174;2022-11-20T17:08:42;7.33;;;4.03;;
9914;SDS011;4996;48.746;9.174;2022-11-20T17:11:09;4.30;;;3.03;;